BLADE42 ESPA-ESPA

Flight info

Callsign BLADE42
Flight time N/A
Altitude 1500
Route VFR OPR
Aircraft H60/M-DOV/C

Departure

Time 2026-05-06 22:39
Airport Luleå Airport (ESPA)

Arrival

Time N/A
Airport Luleå Airport (ESPA)
Time Latitude Longitude Altitude Speed Heading
2026-05-06 22:21 65.54482 22.10985 48 ft 0 kts 62°
2026-05-06 22:30 65.54484 22.11017 48 ft 5 kts 125°
2026-05-06 22:30 65.54448 22.11116 47 ft 10 kts 99°
2026-05-06 22:30 65.54464 22.11295 47 ft 11 kts 79°
2026-05-06 22:31 65.54478 22.11437 46 ft 0 kts 40°
2026-05-06 22:31 65.54480 22.11440 52 ft 2 kts 43°
2026-05-06 22:31 65.54503 22.11455 95 ft 15 kts 354°
2026-05-06 22:32 65.54898 22.11399 372 ft 94 kts 360°
2026-05-06 22:32 65.55720 22.11444 467 ft 136 kts
2026-05-06 22:32 65.56721 22.11548 453 ft 151 kts
2026-05-06 22:32 65.57769 22.11675 499 ft 150 kts
2026-05-06 22:33 65.58807 22.11805 525 ft 149 kts
2026-05-06 22:33 65.59848 22.11935 519 ft 149 kts
2026-05-06 22:33 65.60885 22.12063 522 ft 150 kts
2026-05-06 22:33 65.61929 22.12038 525 ft 148 kts 359°
2026-05-06 22:34 65.62967 22.11962 524 ft 149 kts 359°
2026-05-06 22:34 65.64004 22.11887 525 ft 150 kts 359°
2026-05-06 22:34 65.65042 22.11812 526 ft 149 kts 359°
2026-05-06 22:34 65.66064 22.11738 526 ft 150 kts 359°
2026-05-06 22:35 65.67101 22.11663 526 ft 149 kts 359°
2026-05-06 22:35 65.68140 22.11587 526 ft 150 kts 359°
2026-05-06 22:35 65.69179 22.11509 526 ft 150 kts 359°
2026-05-06 22:35 65.70219 22.11432 526 ft 149 kts 359°
2026-05-06 22:36 65.71258 22.11355 525 ft 149 kts 359°
2026-05-06 22:36 65.72294 22.11272 525 ft 151 kts 358°
2026-05-06 22:36 65.73335 22.11053 524 ft 150 kts 357°
2026-05-06 22:36 65.74368 22.10885 525 ft 150 kts 357°
2026-05-06 22:37 65.75414 22.10712 526 ft 150 kts 357°
2026-05-06 22:37 65.76453 22.10541 526 ft 150 kts 357°
2026-05-06 22:37 65.77493 22.10369 526 ft 150 kts 357°
2026-05-06 22:37 65.78533 22.10199 526 ft 150 kts 357°
2026-05-06 22:38 65.79571 22.10031 524 ft 149 kts 357°
2026-05-06 22:38 65.80611 22.09858 525 ft 149 kts 357°
2026-05-06 22:38 65.81654 22.09725 525 ft 149 kts 358°
2026-05-06 22:38 65.82701 22.09682 525 ft 150 kts
2026-05-06 22:39 65.83739 22.09642 824 ft 148 kts
2026-05-06 22:39 65.84766 22.09612 819 ft 148 kts
2026-05-06 22:39 65.85793 22.09583 819 ft 148 kts
2026-05-06 22:39 65.86820 22.09553 820 ft 149 kts
2026-05-06 22:40 65.87850 22.09523 820 ft 148 kts
2026-05-06 22:40 65.88879 22.09495 820 ft 148 kts
2026-05-06 22:40 65.89908 22.09467 820 ft 148 kts
2026-05-06 22:40 65.90936 22.09441 820 ft 148 kts
2026-05-06 22:41 65.92992 22.09388 821 ft 148 kts
2026-05-06 22:41 65.94008 22.09358 818 ft 148 kts
2026-05-06 22:41 65.95035 22.09326 818 ft 148 kts
2026-05-06 22:42 65.96078 22.09295 819 ft 148 kts
2026-05-06 22:42 65.97089 22.09266 825 ft 146 kts 359°
2026-05-06 22:42 65.98112 22.09198 819 ft 147 kts 359°
2026-05-06 22:42 65.99138 22.09130 821 ft 147 kts 359°
2026-05-06 22:43 66.00158 22.09063 821 ft 146 kts 359°
2026-05-06 22:43 66.01181 22.08991 820 ft 147 kts 359°
2026-05-06 22:43 66.02203 22.08920 821 ft 147 kts 359°
2026-05-06 22:43 66.03230 22.08846 820 ft 147 kts 359°
2026-05-06 22:44 66.04251 22.08776 821 ft 147 kts 359°
2026-05-06 22:44 66.05275 22.08705 821 ft 147 kts 359°
2026-05-06 22:44 66.06293 22.08638 821 ft 147 kts 359°
2026-05-06 22:44 66.07316 22.08570 875 ft 146 kts 359°
2026-05-06 22:45 66.08342 22.08507 913 ft 148 kts 359°
2026-05-06 22:45 66.09367 22.08444 937 ft 147 kts 359°
2026-05-06 22:45 66.10389 22.08365 941 ft 148 kts 359°
2026-05-06 22:45 66.11407 22.08298 938 ft 146 kts 359°
2026-05-06 22:46 66.12428 22.08227 939 ft 148 kts 359°
2026-05-06 22:46 66.13447 22.08160 939 ft 147 kts 359°
2026-05-06 22:46 66.14465 22.08091 941 ft 147 kts 359°
2026-05-06 22:46 66.15486 22.08020 938 ft 147 kts 359°
2026-05-06 22:47 66.16496 22.07948 940 ft 147 kts 359°
2026-05-06 22:47 66.17517 22.07877 939 ft 147 kts 359°
2026-05-06 22:47 66.18535 22.07807 940 ft 147 kts 359°
2026-05-06 22:47 66.19556 22.07737 939 ft 147 kts 359°
2026-05-06 22:48 66.20577 22.07670 938 ft 146 kts 359°
2026-05-06 22:48 66.21597 22.07601 937 ft 148 kts 359°
2026-05-06 22:48 66.22617 22.07528 1187 ft 144 kts 359°
2026-05-06 22:48 66.23620 22.07477 1377 ft 146 kts 359°
2026-05-06 22:49 66.24624 22.07430 1395 ft 144 kts 359°
2026-05-06 22:49 66.25624 22.07385 1389 ft 144 kts 359°
2026-05-06 22:49 66.26625 22.07338 1390 ft 143 kts 359°
2026-05-06 22:49 66.27624 22.07293 1390 ft 144 kts 359°
2026-05-06 22:50 66.28626 22.07247 1387 ft 144 kts 359°
2026-05-06 22:50 66.29629 22.07198 1387 ft 144 kts 359°
2026-05-06 22:50 66.30630 22.07151 1393 ft 145 kts 359°
2026-05-06 22:50 66.31632 22.07103 1389 ft 144 kts 359°
2026-05-06 22:51 66.32621 22.07054 1392 ft 144 kts 359°
2026-05-06 22:51 66.33633 22.07005 1389 ft 143 kts 359°
2026-05-06 22:51 66.34632 22.06956 1390 ft 144 kts 359°
2026-05-06 22:51 66.35631 22.06907 1391 ft 143 kts 359°
2026-05-06 22:52 66.36633 22.06860 1386 ft 144 kts 359°
2026-05-06 22:52 66.37622 22.06814 1387 ft 143 kts 359°
2026-05-06 22:52 66.38624 22.06768 1389 ft 144 kts 359°
2026-05-06 22:52 66.39625 22.06723 1383 ft 144 kts 359°
2026-05-06 22:53 66.40626 22.06676 1386 ft 143 kts 359°
2026-05-06 22:53 66.41625 22.06626 1387 ft 145 kts 359°
2026-05-06 22:53 66.42630 22.06477 1395 ft 140 kts 355°
2026-05-06 22:53 66.43628 22.06250 1392 ft 145 kts 355°
2026-05-06 22:54 66.44628 22.06024 1391 ft 143 kts 355°
2026-05-06 22:54 66.45290 22.05873 1388 ft 144 kts 355°
2026-05-06 22:54 66.46287 22.05647 1387 ft 144 kts 355°
2026-05-06 22:54 66.47284 22.05420 1385 ft 143 kts 355°
2026-05-06 22:55 66.48278 22.05193 1388 ft 143 kts 355°
2026-05-06 22:55 66.49275 22.04965 1388 ft 145 kts 355°
2026-05-06 22:55 66.50271 22.04736 1392 ft 145 kts 355°
2026-05-06 22:55 66.51268 22.04509 1387 ft 144 kts 355°
2026-05-06 22:56 66.52266 22.04281 1391 ft 143 kts 355°
2026-05-06 22:56 66.53261 22.04053 1386 ft 143 kts 355°
2026-05-06 22:56 66.54258 22.03825 1385 ft 143 kts 355°
2026-05-06 22:56 66.55251 22.03595 1383 ft 143 kts 355°
2026-05-06 22:57 66.56247 22.03366 1384 ft 144 kts 355°
2026-05-06 22:57 66.57231 22.03140 1383 ft 143 kts 355°
2026-05-06 22:57 66.58229 22.02911 1383 ft 143 kts 355°
2026-05-06 22:57 66.59227 22.02683 1384 ft 145 kts 355°
2026-05-06 22:58 66.60222 22.02454 1385 ft 145 kts 355°
2026-05-06 22:58 66.61217 22.02228 1389 ft 140 kts 355°
2026-05-06 22:58 66.62172 22.02074 1389 ft 141 kts 358°
2026-05-06 22:58 66.63193 22.01966 1384 ft 143 kts 358°
2026-05-06 22:59 66.64188 22.01880 1390 ft 143 kts 358°
2026-05-06 22:59 66.65190 22.01795 1383 ft 144 kts 358°
2026-05-06 22:59 66.66182 22.01727 1387 ft 142 kts 358°
2026-05-06 22:59 66.67170 22.01698 1386 ft 142 kts 359°
2026-05-06 23:00 66.68155 22.01676 1396 ft 142 kts 359°
2026-05-06 23:00 66.69147 22.01656 1394 ft 142 kts 359°
2026-05-06 23:00 66.70136 22.01636 1390 ft 142 kts 359°
2026-05-06 23:00 66.71125 22.01616 1391 ft 142 kts 359°
2026-05-06 23:01 66.72113 22.01596 1387 ft 142 kts 359°
2026-05-06 23:01 66.73101 22.01573 1390 ft 142 kts 359°
2026-05-06 23:01 66.74090 22.01551 1389 ft 142 kts 359°
2026-05-06 23:01 66.75078 22.01528 1389 ft 142 kts 359°
2026-05-06 23:02 66.76064 22.01506 1389 ft 142 kts 359°
2026-05-06 23:02 66.77054 22.01484 1389 ft 142 kts 359°
2026-05-06 23:02 66.78042 22.01462 1389 ft 142 kts 359°
2026-05-06 23:02 66.79017 22.01441 1388 ft 142 kts 359°
2026-05-06 23:03 66.80005 22.01419 1388 ft 142 kts 359°
2026-05-06 23:03 66.80993 22.01396 1389 ft 143 kts 359°
2026-05-06 23:03 66.81982 22.01373 1389 ft 142 kts 359°
2026-05-06 23:03 66.82971 22.01351 1389 ft 142 kts 359°
2026-05-06 23:04 66.83958 22.01328 1389 ft 142 kts 359°
2026-05-06 23:04 66.84945 22.01304 1389 ft 142 kts 359°
2026-05-06 23:04 66.85933 22.01279 1388 ft 141 kts 359°
2026-05-06 23:04 66.86921 22.01254 1387 ft 142 kts 359°
2026-05-06 23:05 66.87908 22.01228 1392 ft 142 kts 359°
2026-05-06 23:05 66.88895 22.01191 1382 ft 143 kts 359°
2026-05-06 23:05 66.89884 22.01140 1388 ft 141 kts 359°
2026-05-06 23:05 66.90872 22.01091 1395 ft 143 kts 359°
2026-05-06 23:06 66.91861 22.01043 1386 ft 143 kts 359°
2026-05-06 23:06 66.92850 22.00992 1390 ft 142 kts 359°
2026-05-06 23:06 66.93840 22.00942 1389 ft 143 kts 359°
2026-05-06 23:06 66.94827 22.00894 1388 ft 141 kts 359°
2026-05-06 23:07 66.95814 22.00844 1394 ft 142 kts 359°
2026-05-06 23:07 66.96801 22.00796 1391 ft 143 kts 359°
2026-05-06 23:07 66.97789 22.00749 1394 ft 142 kts 359°
2026-05-06 23:07 66.98766 22.00680 1397 ft 136 kts 357°
2026-05-06 23:08 66.99745 22.00488 1393 ft 142 kts 356°
2026-05-06 23:08 67.00729 22.00300 1390 ft 142 kts 356°
2026-05-06 23:08 67.01713 22.00117 1389 ft 141 kts 356°
2026-05-06 23:08 67.02697 21.99941 1394 ft 142 kts 356°
2026-05-06 23:09 67.03683 21.99764 1391 ft 142 kts 356°
2026-05-06 23:09 67.04666 21.99588 1392 ft 142 kts 356°
2026-05-06 23:09 67.05649 21.99411 1391 ft 142 kts 356°
2026-05-06 23:09 67.06634 21.99234 1392 ft 141 kts 356°
2026-05-06 23:10 67.07618 21.99057 1392 ft 142 kts 356°
2026-05-06 23:10 67.08589 21.98883 1388 ft 141 kts 356°
2026-05-06 23:10 67.09574 21.98711 1389 ft 142 kts 356°
2026-05-06 23:10 67.10558 21.98538 1389 ft 141 kts 356°
2026-05-06 23:11 67.11543 21.98365 1442 ft 143 kts 356°
2026-05-06 23:11 67.12529 21.98201 1648 ft 141 kts 356°
2026-05-06 23:11 67.13511 21.98045 1617 ft 142 kts 356°
2026-05-06 23:11 67.14492 21.97889 1625 ft 142 kts 356°
2026-05-06 23:12 67.15475 21.97732 1629 ft 141 kts 356°
2026-05-06 23:12 67.16456 21.97575 1626 ft 142 kts 356°
2026-05-06 23:12 67.17439 21.97418 1627 ft 141 kts 356°
2026-05-06 23:12 67.18421 21.97260 1627 ft 141 kts 356°
2026-05-06 23:13 67.19404 21.97104 1630 ft 142 kts 356°
2026-05-06 23:13 67.20383 21.96946 1630 ft 141 kts 356°
2026-05-06 23:13 67.21365 21.96787 1630 ft 142 kts 356°
2026-05-06 23:13 67.22348 21.96629 1630 ft 141 kts 356°
2026-05-06 23:14 67.23331 21.96472 1629 ft 141 kts 356°
2026-05-06 23:14 67.24313 21.96317 1627 ft 142 kts 356°
2026-05-06 23:14 67.25295 21.96163 1627 ft 142 kts 356°
2026-05-06 23:14 67.26278 21.96007 1627 ft 141 kts 356°
2026-05-06 23:15 67.27238 21.95874 1631 ft 134 kts 356°
2026-05-06 23:15 67.28207 21.95721 1627 ft 142 kts 356°
2026-05-06 23:15 67.29191 21.95577 1624 ft 145 kts 358°
2026-05-06 23:15 67.30179 21.95493 1625 ft 142 kts 358°
2026-05-06 23:16 67.31165 21.95408 1628 ft 142 kts 358°
2026-05-06 23:16 67.32149 21.95321 1627 ft 141 kts 358°
2026-05-06 23:16 67.33134 21.95236 1628 ft 141 kts 358°
2026-05-06 23:16 67.34109 21.95161 1632 ft 136 kts 358°
2026-05-06 23:17 67.35031 21.95130 1631 ft 134 kts 360°
2026-05-06 23:17 67.36014 21.95126 1626 ft 142 kts 360°
2026-05-06 23:17 67.36996 21.95120 1619 ft 141 kts 360°
2026-05-06 23:17 67.37980 21.95093 1630 ft 141 kts 360°
2026-05-06 23:18 67.38961 21.95067 1629 ft 140 kts 360°
2026-05-06 23:18 67.39942 21.95042 1630 ft 141 kts 360°
2026-05-06 23:18 67.40923 21.95016 1630 ft 141 kts 360°
2026-05-06 23:18 67.41904 21.94984 1623 ft 139 kts 358°
2026-05-06 23:19 67.42770 21.93929 1634 ft 142 kts 324°
2026-05-06 23:19 67.43559 21.92433 1636 ft 141 kts 324°
2026-05-06 23:19 67.44071 21.90364 1611 ft 144 kts 278°
2026-05-06 23:19 67.43915 21.87864 1620 ft 142 kts 260°
2026-05-06 23:20 67.43737 21.85362 1637 ft 140 kts 260°
2026-05-06 23:20 67.43562 21.82865 1635 ft 140 kts 260°
2026-05-06 23:20 67.43387 21.80373 1747 ft 139 kts 260°
2026-05-06 23:20 67.43216 21.77921 1876 ft 136 kts 262°
2026-05-06 23:21 67.43200 21.75501 1894 ft 140 kts 271°
2026-05-06 23:21 67.43229 21.72965 1889 ft 140 kts 272°
2026-05-06 23:21 67.43260 21.70442 1889 ft 139 kts 272°
2026-05-06 23:21 67.43290 21.67959 1892 ft 139 kts 272°
2026-05-06 23:22 67.43321 21.65416 1894 ft 139 kts 272°
2026-05-06 23:22 67.43357 21.62931 1889 ft 139 kts 272°
2026-05-06 23:22 67.43412 21.60439 1900 ft 134 kts 276°
2026-05-06 23:22 67.43520 21.57929 1895 ft 138 kts 276°
2026-05-06 23:23 67.43627 21.55426 1891 ft 140 kts 276°
2026-05-06 23:23 67.43732 21.52918 1891 ft 139 kts 276°
2026-05-06 23:23 67.43836 21.50412 1891 ft 140 kts 276°
2026-05-06 23:23 67.43941 21.47906 1891 ft 139 kts 276°
2026-05-06 23:24 67.44045 21.45392 1891 ft 139 kts 276°
2026-05-06 23:24 67.44145 21.42881 1889 ft 140 kts 276°
2026-05-06 23:24 67.44243 21.40371 1891 ft 140 kts 276°
2026-05-06 23:24 67.44341 21.37861 1892 ft 139 kts 276°
2026-05-06 23:25 67.44439 21.35356 1888 ft 139 kts 276°
2026-05-06 23:25 67.44536 21.32845 1889 ft 140 kts 276°
2026-05-06 23:25 67.44633 21.30328 1888 ft 140 kts 276°
2026-05-06 23:25 67.44731 21.27816 1888 ft 139 kts 276°
2026-05-06 23:26 67.44828 21.25302 1891 ft 139 kts 276°
2026-05-06 23:26 67.44924 21.22790 1890 ft 139 kts 276°
2026-05-06 23:26 67.45065 21.20289 1892 ft 141 kts 294°
2026-05-06 23:26 67.45695 21.18499 1897 ft 136 kts 343°
2026-05-06 23:27 67.46577 21.18759 1893 ft 132 kts 45°
2026-05-06 23:27 67.46906 21.20839 1892 ft 132 kts 91°
2026-05-06 23:27 67.46904 21.23397 1882 ft 143 kts 91°
2026-05-06 23:27 67.46907 21.25966 1895 ft 142 kts 91°
2026-05-06 23:28 67.46911 21.28516 1886 ft 142 kts 91°
2026-05-06 23:28 67.46914 21.31094 1891 ft 141 kts 91°
2026-05-06 23:28 67.46917 21.33671 1890 ft 141 kts 91°
2026-05-06 23:28 67.46926 21.36221 1894 ft 137 kts 89°
2026-05-06 23:29 67.46968 21.38787 1889 ft 142 kts 89°
2026-05-06 23:29 67.47007 21.41360 1889 ft 142 kts 89°
2026-05-06 23:29 67.47047 21.43934 1888 ft 141 kts 89°
2026-05-06 23:29 67.47086 21.46508 1889 ft 142 kts 89°
2026-05-06 23:30 67.47162 21.49071 1892 ft 141 kts 86°
2026-05-06 23:30 67.47243 21.51634 1896 ft 142 kts 86°
2026-05-06 23:30 67.47330 21.54220 1893 ft 148 kts 84°
2026-05-06 23:30 67.47462 21.56779 1892 ft 143 kts 83°
2026-05-06 23:31 67.47588 21.59304 1896 ft 143 kts 83°
2026-05-06 23:31 67.47715 21.61856 1894 ft 142 kts 83°
2026-05-06 23:31 67.47842 21.64405 1894 ft 142 kts 83°
2026-05-06 23:31 67.47981 21.66998 1891 ft 147 kts 82°
2026-05-06 23:32 67.48151 21.69527 1895 ft 143 kts 81°
2026-05-06 23:32 67.48317 21.72066 1895 ft 141 kts 81°
2026-05-06 23:32 67.48479 21.74604 1895 ft 142 kts 81°
2026-05-06 23:32 67.48640 21.77140 1892 ft 143 kts 81°
2026-05-06 23:33 67.48801 21.79678 1893 ft 142 kts 81°
2026-05-06 23:33 67.48962 21.82217 1895 ft 142 kts 81°
2026-05-06 23:33 67.49122 21.84755 1896 ft 141 kts 81°
2026-05-06 23:33 67.49282 21.87294 1892 ft 142 kts 81°
2026-05-06 23:34 67.49441 21.89826 1897 ft 139 kts 81°
2026-05-06 23:34 67.49598 21.92384 1900 ft 138 kts 81°
2026-05-06 23:34 67.49755 21.94886 1896 ft 142 kts 81°
2026-05-06 23:34 67.49914 21.97429 1894 ft 141 kts 81°
2026-05-06 23:35 67.50057 21.99916 1901 ft 136 kts 83°
2026-05-06 23:35 67.50189 22.02477 1898 ft 141 kts 83°
2026-05-06 23:35 67.50321 22.05027 1897 ft 142 kts 83°
2026-05-06 23:35 67.50452 22.07575 1896 ft 141 kts 83°
2026-05-06 23:36 67.50583 22.10125 1893 ft 141 kts 83°
2026-05-06 23:36 67.50713 22.12675 1895 ft 142 kts 83°
2026-05-06 23:36 67.50844 22.15224 1894 ft 141 kts 83°
2026-05-06 23:36 67.50974 22.17773 1896 ft 142 kts 83°
2026-05-06 23:37 67.51105 22.20323 1897 ft 142 kts 83°
2026-05-06 23:37 67.51235 22.22872 1896 ft 142 kts 83°
2026-05-06 23:37 67.51364 22.25422 1895 ft 141 kts 83°
2026-05-06 23:37 67.51494 22.27971 1898 ft 142 kts 83°
2026-05-06 23:38 67.51623 22.30525 1896 ft 141 kts 83°
2026-05-06 23:38 67.51751 22.33064 1894 ft 141 kts 83°
2026-05-06 23:38 67.51879 22.35612 1892 ft 141 kts 83°
2026-05-06 23:38 67.52006 22.38164 1897 ft 142 kts 83°
2026-05-06 23:39 67.52133 22.40720 1900 ft 142 kts 83°
2026-05-06 23:39 67.52257 22.43238 1899 ft 141 kts 83°
2026-05-06 23:39 67.52384 22.45784 1898 ft 142 kts 83°
2026-05-06 23:39 67.52510 22.48333 1900 ft 142 kts 83°
2026-05-06 23:40 67.52635 22.50885 1897 ft 141 kts 83°
2026-05-06 23:40 67.52760 22.53432 1895 ft 141 kts 83°
2026-05-06 23:40 67.52886 22.55988 1898 ft 141 kts 83°
2026-05-06 23:40 67.53011 22.58544 1898 ft 141 kts 83°
2026-05-06 23:41 67.53093 22.60230 1899 ft 142 kts 83°
2026-05-06 23:41 67.53242 22.63291 1900 ft 142 kts 83°
2026-05-06 23:41 67.53367 22.65848 1900 ft 142 kts 83°
2026-05-06 23:41 67.53491 22.68405 1896 ft 142 kts 83°
2026-05-06 23:42 67.53615 22.70955 1898 ft 141 kts 83°
2026-05-06 23:42 67.53736 22.73475 1895 ft 141 kts 83°
2026-05-06 23:42 67.53860 22.76028 1898 ft 142 kts 83°
2026-05-06 23:42 67.53984 22.78591 1903 ft 142 kts 83°
2026-05-06 23:43 67.54110 22.81168 1900 ft 142 kts 83°
2026-05-06 23:43 67.54235 22.83745 1899 ft 143 kts 83°
2026-05-06 23:43 67.54360 22.86322 1900 ft 143 kts 83°
2026-05-06 23:43 67.54129 22.88734 1895 ft 139 kts 124°
2026-05-06 23:44 67.53378 22.90365 1897 ft 144 kts 144°
2026-05-06 23:44 67.52589 22.91908 1897 ft 140 kts 148°
2026-05-06 23:44 67.51665 22.92244 1898 ft 136 kts 193°
2026-05-06 23:44 67.51033 22.91864 1899 ft 141 kts 194°
2026-05-06 23:45 67.50081 22.91314 1904 ft 140 kts 194°
2026-05-06 23:45 67.49130 22.90761 1887 ft 140 kts 194°
2026-05-06 23:45 67.48180 22.90210 1883 ft 139 kts 194°
2026-05-06 23:45 67.47228 22.89659 1882 ft 140 kts 194°
2026-05-06 23:46 67.46275 22.89107 1882 ft 140 kts 194°
2026-05-06 23:46 67.45334 22.88562 1880 ft 140 kts 194°
2026-05-06 23:46 67.44384 22.88013 1877 ft 140 kts 194°
2026-05-06 23:46 67.43431 22.87465 1879 ft 138 kts 194°
2026-05-06 23:47 67.42475 22.86999 1875 ft 139 kts 192°
2026-05-06 23:47 67.41519 22.86526 1875 ft 140 kts 192°
2026-05-06 23:47 67.40562 22.86053 1874 ft 140 kts 192°
2026-05-06 23:47 67.39605 22.85581 1873 ft 139 kts 192°
2026-05-06 23:48 67.38645 22.85109 1872 ft 140 kts 192°
2026-05-06 23:48 67.37687 22.84640 1871 ft 140 kts 192°
2026-05-06 23:48 67.36731 22.84172 1870 ft 140 kts 192°
2026-05-06 23:48 67.35771 22.83703 1869 ft 141 kts 192°
2026-05-06 23:49 67.34815 22.83235 1870 ft 140 kts 192°
2026-05-06 23:49 67.33856 22.82766 1868 ft 140 kts 192°
2026-05-06 23:49 67.32898 22.82297 1867 ft 140 kts 192°
2026-05-06 23:49 67.31940 22.81828 1866 ft 140 kts 192°
2026-05-06 23:50 67.30981 22.81360 1865 ft 140 kts 192°
2026-05-06 23:50 67.29066 22.80425 1863 ft 140 kts 192°
2026-05-06 23:50 67.28108 22.79958 1862 ft 140 kts 192°
2026-05-06 23:51 67.27162 22.79497 1864 ft 140 kts 192°
2026-05-06 23:51 67.26204 22.79030 1864 ft 140 kts 192°
2026-05-06 23:51 67.25247 22.78564 1865 ft 140 kts 192°
2026-05-06 23:51 67.24286 22.78101 1866 ft 140 kts 192°
2026-05-06 23:52 67.23327 22.77646 1864 ft 139 kts 192°
2026-05-06 23:52 67.22369 22.77193 1864 ft 141 kts 192°
2026-05-06 23:52 67.21411 22.76739 1867 ft 139 kts 192°
2026-05-06 23:52 67.20451 22.76285 1867 ft 140 kts 192°
2026-05-06 23:53 67.19493 22.75833 1870 ft 139 kts 192°
2026-05-06 23:53 67.18535 22.75382 1869 ft 140 kts 192°
2026-05-06 23:53 67.17578 22.74930 1869 ft 140 kts 192°
2026-05-06 23:53 67.16619 22.74478 1872 ft 139 kts 192°
2026-05-06 23:54 67.15637 22.74088 1871 ft 149 kts 187°
2026-05-06 23:54 67.14658 22.73924 1869 ft 143 kts 185°
2026-05-06 23:54 67.13681 22.73757 1874 ft 140 kts 185°
2026-05-06 23:54 67.12707 22.73590 1877 ft 140 kts 185°
2026-05-06 23:55 67.11732 22.73423 1876 ft 140 kts 185°
2026-05-06 23:55 67.10772 22.73255 1878 ft 141 kts 185°
2026-05-06 23:55 67.09796 22.73086 1881 ft 140 kts 185°
2026-05-06 23:55 67.08832 22.72742 1883 ft 141 kts 193°
2026-05-06 23:56 67.07875 22.72260 1883 ft 140 kts 193°
2026-05-06 23:56 67.06920 22.71782 1886 ft 140 kts 193°
2026-05-06 23:56 67.05964 22.71304 1889 ft 140 kts 193°
2026-05-06 23:56 67.05008 22.70827 1891 ft 140 kts 193°
2026-05-06 23:57 67.04050 22.70349 1894 ft 139 kts 193°
2026-05-06 23:57 67.03095 22.69872 1893 ft 140 kts 193°
2026-05-06 23:57 67.02136 22.69395 1896 ft 140 kts 193°
2026-05-06 23:57 67.01180 22.68919 1896 ft 140 kts 193°
2026-05-06 23:58 67.00275 22.68528 1930 ft 113 kts 190°
2026-05-06 23:58 66.99674 22.68198 1683 ft 75 kts 199°
2026-05-06 23:58 66.99296 22.67766 852 ft 32 kts 217°
2026-05-06 23:58 66.99173 22.67701 491 ft 18 kts 167°
2026-05-06 23:59 66.99149 22.67715 490 ft 0 kts 168°
2026-05-06 23:59 66.99117 22.67945 532 ft 38 kts 148°
2026-05-06 23:59 66.98949 22.68165 492 ft 17 kts 169°
2026-05-06 23:59 66.98847 22.68254 515 ft 22 kts 167°
2026-05-07 00:00 66.98589 22.68393 804 ft 58 kts 181°
2026-05-07 00:00 66.98063 22.68469 936 ft 91 kts 184°
2026-05-07 00:00 66.97372 22.68189 938 ft 104 kts 191°
2026-05-07 00:00 66.96678 22.67879 943 ft 101 kts 191°
2026-05-07 00:01 66.95976 22.67566 928 ft 103 kts 191°
2026-05-07 00:01 66.95272 22.67254 926 ft 102 kts 191°
2026-05-07 00:01 66.94569 22.66944 926 ft 102 kts 191°
2026-05-07 00:01 66.93865 22.66634 926 ft 103 kts 191°
2026-05-07 00:02 66.93164 22.66326 926 ft 103 kts 191°
2026-05-07 00:02 66.92461 22.66018 927 ft 103 kts 191°
2026-05-07 00:02 66.91759 22.65710 927 ft 102 kts 191°
2026-05-07 00:02 66.91057 22.65402 928 ft 102 kts 191°
2026-05-07 00:03 66.90354 22.65091 935 ft 103 kts 191°
2026-05-07 00:03 66.89660 22.64784 929 ft 103 kts 191°
2026-05-07 00:03 66.88954 22.64472 929 ft 102 kts 191°
2026-05-07 00:03 66.88250 22.64161 929 ft 102 kts 191°
2026-05-07 00:04 66.87547 22.63851 934 ft 102 kts 191°
2026-05-07 00:04 66.86843 22.63541 929 ft 103 kts 191°
2026-05-07 00:04 66.86140 22.63231 929 ft 103 kts 191°
2026-05-07 00:04 66.85438 22.62923 933 ft 103 kts 191°
2026-05-07 00:05 66.84736 22.62613 930 ft 102 kts 191°
2026-05-07 00:05 66.84034 22.62301 929 ft 102 kts 191°
2026-05-07 00:05 66.83334 22.61989 928 ft 102 kts 191°
2026-05-07 00:05 66.82637 22.61677 929 ft 101 kts 191°
2026-05-07 00:06 66.81936 22.61365 933 ft 101 kts 191°
2026-05-07 00:06 66.81238 22.61055 951 ft 103 kts 191°
2026-05-07 00:06 66.80541 22.60753 1306 ft 102 kts 191°
2026-05-07 00:06 66.79837 22.60460 1552 ft 103 kts 191°
2026-05-07 00:07 66.79124 22.60171 1744 ft 104 kts 191°
2026-05-07 00:07 66.78405 22.59882 1899 ft 104 kts 191°
2026-05-07 00:07 66.77687 22.59598 2033 ft 105 kts 191°
2026-05-07 00:07 66.76965 22.59315 2146 ft 105 kts 191°
2026-05-07 00:08 66.76252 22.59039 2246 ft 105 kts 191°
2026-05-07 00:08 66.75517 22.58757 2335 ft 106 kts 191°
2026-05-07 00:08 66.74803 22.58486 2414 ft 105 kts 191°
2026-05-07 00:08 66.74075 22.58211 2487 ft 106 kts 191°
2026-05-07 00:09 66.73347 22.57935 2546 ft 106 kts 191°
2026-05-07 00:09 66.72616 22.57656 2605 ft 106 kts 191°
2026-05-07 00:09 66.71885 22.57378 2653 ft 107 kts 191°
2026-05-07 00:09 66.71155 22.57100 2700 ft 106 kts 191°
2026-05-07 00:10 66.70424 22.56822 2745 ft 107 kts 191°
2026-05-07 00:10 66.69693 22.56543 2792 ft 106 kts 191°
2026-05-07 00:10 66.68960 22.56264 2832 ft 107 kts 191°
2026-05-07 00:10 66.68228 22.55985 2870 ft 106 kts 191°
2026-05-07 00:11 66.67494 22.55706 2906 ft 107 kts 191°
2026-05-07 00:11 66.66761 22.55427 2941 ft 106 kts 191°
2026-05-07 00:11 66.66027 22.55149 2969 ft 107 kts 191°
2026-05-07 00:11 66.65292 22.54869 2992 ft 106 kts 191°
2026-05-07 00:12 66.64558 22.54591 3020 ft 107 kts 191°
2026-05-07 00:12 66.63821 22.54314 3052 ft 106 kts 191°
2026-05-07 00:12 66.63087 22.54038 3083 ft 107 kts 191°
2026-05-07 00:12 66.62351 22.53762 3111 ft 108 kts 191°
2026-05-07 00:13 66.61616 22.53487 3143 ft 107 kts 191°
2026-05-07 00:13 66.60876 22.53210 3172 ft 107 kts 191°
2026-05-07 00:13 66.60141 22.52935 3199 ft 107 kts 191°
2026-05-07 00:13 66.59412 22.52663 3223 ft 107 kts 191°
2026-05-07 00:14 66.58727 22.52405 3237 ft 108 kts 191°
2026-05-07 00:14 66.57994 22.52119 3236 ft 115 kts 191°
2026-05-07 00:14 66.57139 22.51398 2681 ft 142 kts 202°
2026-05-07 00:14 66.56233 22.50772 885 ft 135 kts 187°
2026-05-07 00:15 66.55404 22.50529 516 ft 98 kts 181°
2026-05-07 00:15 66.54882 22.50251 455 ft 73 kts 221°
2026-05-07 00:15 66.54819 22.49366 354 ft 36 kts 346°
2026-05-07 00:15 66.54944 22.49285 319 ft 8 kts
2026-05-07 00:16 66.54979 22.49296 314 ft 0 kts 17°